createdAt,value
2018-12-05T00:01:39.438Z,14.17
2018-12-05T00:04:08.481Z,11.93
2018-12-05T00:06:37.531Z,11.57
2018-12-05T00:09:06.601Z,13.73
2018-12-05T00:11:35.655Z,14.20
2018-12-05T00:14:04.689Z,13.10
2018-12-05T00:16:33.775Z,13.90
2018-12-05T00:19:02.814Z,11.23
2018-12-05T00:21:32.885Z,11.07
2018-12-05T00:24:01.965Z,14.53
2018-12-05T00:26:31.002Z,18.67
2018-12-05T00:29:00.050Z,17.07
2018-12-05T00:31:29.113Z,12.37
2018-12-05T00:33:58.159Z,14.13
2018-12-05T00:36:27.198Z,12.33
2018-12-05T00:38:56.283Z,17.30
2018-12-05T00:41:37.078Z,20.20
2018-12-05T00:44:06.154Z,15.17
2018-12-05T00:46:35.202Z,6.93
2018-12-05T00:49:04.246Z,10.87
2018-12-05T00:57:28.052Z,12.43
2018-12-05T00:59:57.103Z,10.13
2018-12-05T01:02:26.146Z,5.50
2018-12-05T01:04:55.232Z,8.43
2018-12-05T01:07:24.260Z,9.13
2018-12-05T01:09:53.289Z,7.80
2018-12-05T01:12:22.426Z,7.40
2018-12-05T01:14:51.465Z,6.47
2018-12-05T01:17:20.512Z,8.60
2018-12-05T01:19:49.588Z,8.77
2018-12-05T01:22:18.647Z,10.03
2018-12-05T01:24:47.687Z,6.97
2018-12-05T01:27:16.762Z,6.67
2018-12-05T01:29:45.801Z,11.03
2018-12-05T01:32:14.839Z,7.63
2018-12-05T01:34:43.903Z,5.13
2018-12-05T01:37:12.929Z,6.80
2018-12-05T01:39:41.963Z,4.10
2018-12-05T01:42:11.069Z,6.87
2018-12-05T01:44:40.112Z,7.20
2018-12-05T01:47:09.150Z,6.43
2018-12-05T01:49:38.224Z,7.67
2018-12-05T01:52:07.270Z,8.90
2018-12-05T01:54:36.310Z,8.37
2018-12-05T01:57:05.374Z,9.13
2018-12-05T01:59:34.426Z,6.87
2018-12-05T02:02:03.476Z,6.33
2018-12-05T02:04:33.012Z,9.67
2018-12-05T02:07:02.055Z,9.33
2018-12-05T02:09:31.106Z,11.47
2018-12-05T02:12:00.175Z,9.97
2018-12-05T02:14:29.262Z,9.80
2018-12-05T02:16:58.297Z,10.03
2018-12-05T02:19:27.365Z,7.97
2018-12-05T02:21:56.426Z,11.57
2018-12-05T02:24:25.487Z,6.20
2018-12-05T02:26:54.572Z,8.67
2018-12-05T02:29:23.616Z,8.37
2018-12-05T02:31:52.653Z,9.80
2018-12-05T02:34:21.736Z,8.63
2018-12-05T02:36:50.774Z,12.47
2018-12-05T02:39:19.816Z,10.80
2018-12-05T02:41:48.883Z,12.03
2018-12-05T02:44:17.937Z,7.70
2018-12-05T02:46:46.983Z,10.40
2018-12-05T02:49:16.081Z,7.33
2018-12-05T02:51:50.111Z,6.63
2018-12-05T02:54:19.195Z,12.83
2018-12-05T02:56:48.237Z,9.77
2018-12-05T02:59:17.276Z,9.03
2018-12-05T03:01:46.339Z,6.83
2018-12-05T03:04:15.386Z,8.77
2018-12-05T03:06:44.433Z,12.70
2018-12-05T03:09:13.624Z,7.23
2018-12-05T03:11:42.667Z,11.10
2018-12-05T03:14:11.708Z,10.10
2018-12-05T03:16:40.820Z,7.13
2018-12-05T03:19:09.851Z,11.73
2018-12-05T03:21:38.899Z,6.33
2018-12-05T03:24:07.967Z,15.10
2018-12-05T03:26:37.008Z,7.73
2018-12-05T03:29:06.782Z,6.53
2018-12-05T03:31:35.155Z,8.23
2018-12-05T03:34:04.205Z,9.33
2018-12-05T03:36:33.240Z,6.83
2018-12-05T03:39:02.307Z,5.83
2018-12-05T03:41:31.344Z,10.90
2018-12-05T03:44:00.405Z,11.63
2018-12-05T03:46:29.471Z,7.43
2018-12-05T03:48:58.516Z,10.80
2018-12-05T03:51:27.567Z,9.93
2018-12-05T03:53:56.660Z,9.33
2018-12-05T03:56:25.706Z,9.93
2018-12-05T03:58:54.760Z,8.87
2018-12-05T04:01:24.095Z,6.87
2018-12-05T04:03:53.138Z,12.57
2018-12-05T04:06:22.176Z,9.10
2018-12-05T04:08:51.258Z,10.73
2018-12-05T04:14:16.798Z,10.47
2018-12-05T04:16:45.836Z,8.60
2018-12-05T04:19:14.861Z,8.70
2018-12-05T04:21:43.923Z,6.67
2018-12-05T04:24:12.974Z,10.23
2018-12-05T04:26:42.020Z,6.73
2018-12-05T04:29:11.089Z,6.17
2018-12-05T04:31:40.129Z,6.70
2018-12-05T04:34:09.191Z,6.97
2018-12-05T04:36:38.391Z,11.40
2018-12-05T04:39:07.445Z,7.87
2018-12-05T04:41:36.499Z,13.97
2018-12-05T04:44:05.578Z,13.00
2018-12-05T04:46:34.636Z,10.80
2018-12-05T04:49:03.686Z,9.33
2018-12-05T04:51:43.577Z,14.43
2018-12-05T04:54:12.635Z,11.73
2018-12-05T04:56:41.684Z,15.53
2018-12-05T04:59:10.853Z,11.60
2018-12-05T05:01:40.864Z,14.27
2018-12-05T05:04:09.918Z,10.57
2018-12-05T05:06:41.600Z,9.07
2018-12-05T05:09:08.035Z,12.40
2018-12-05T05:11:37.086Z,14.07
2018-12-05T05:14:06.178Z,12.20
2018-12-05T05:16:35.228Z,10.30
2018-12-05T05:19:04.278Z,9.07
2018-12-05T05:21:33.369Z,10.13
2018-12-05T05:24:02.415Z,6.50
2018-12-05T05:26:31.451Z,10.27
2018-12-05T05:29:00.544Z,12.00
2018-12-05T05:31:47.620Z,11.80
2018-12-05T05:34:17.053Z,13.37
2018-12-05T05:36:46.099Z,11.63
2018-12-05T05:39:15.141Z,20.37
2018-12-05T05:44:51.262Z,13.13
2018-12-05T05:47:20.332Z,8.00
2018-12-05T05:49:49.390Z,14.40
2018-12-05T05:52:18.450Z,16.83
2018-12-05T05:54:47.812Z,17.17
2018-12-05T05:57:16.866Z,15.83
2018-12-05T05:59:45.912Z,13.33
2018-12-05T06:02:14.982Z,22.40
2018-12-05T06:04:44.045Z,17.40
2018-12-05T06:07:13.092Z,21.90
2018-12-05T06:09:42.187Z,15.13
2018-12-05T06:12:11.249Z,26.10
2018-12-05T06:14:40.304Z,30.73
2018-12-05T06:17:09.418Z,18.00
2018-12-05T06:19:38.454Z,13.83
2018-12-05T06:22:19.001Z,9.47
2018-12-05T06:24:48.052Z,11.87
2018-12-05T06:27:17.092Z,16.87
2018-12-05T06:29:46.179Z,29.43
2018-12-05T06:32:15.231Z,12.17
2018-12-05T06:34:44.284Z,10.50
2018-12-05T06:37:13.441Z,9.73
2018-12-05T06:39:42.487Z,18.00
2018-12-05T06:42:16.121Z,24.73
2018-12-05T06:44:45.180Z,22.03
2018-12-05T06:47:14.236Z,28.50
2018-12-05T06:49:43.311Z,30.50
2018-12-05T06:52:12.364Z,31.47
2018-12-05T06:54:41.428Z,27.93
2018-12-05T06:57:10.543Z,33.07
2018-12-05T06:59:39.598Z,32.33
2018-12-05T07:02:09.677Z,37.10
2018-12-05T07:04:38.759Z,37.03
2018-12-05T07:07:07.834Z,28.00
2018-12-05T07:09:36.895Z,20.33
2018-12-05T07:12:05.978Z,18.77
2018-12-05T07:14:35.087Z,13.87
2018-12-05T07:17:04.130Z,13.03
2018-12-05T07:19:33.241Z,15.37
2018-12-05T07:22:02.287Z,13.90
2018-12-05T07:24:31.355Z,30.73
2018-12-05T07:27:00.441Z,38.27
2018-12-05T07:29:29.504Z,40.60
2018-12-05T07:31:58.559Z,31.30
2018-12-05T07:34:27.644Z,27.30
2018-12-05T07:36:56.700Z,15.03
2018-12-05T07:39:25.746Z,14.50
2018-12-05T07:41:55.006Z,16.80
2018-12-05T07:44:24.042Z,11.67
2018-12-05T07:46:53.101Z,14.33
2018-12-05T07:49:22.167Z,12.93
2018-12-05T07:51:53.236Z,15.63
2018-12-05T07:54:22.271Z,16.30
2018-12-05T07:56:51.629Z,13.00
2018-12-05T07:59:20.677Z,16.80
2018-12-05T08:01:49.730Z,10.47
2018-12-05T08:04:18.853Z,12.10
2018-12-05T08:06:47.896Z,12.33
2018-12-05T08:09:16.946Z,11.37
2018-12-05T08:11:46.022Z,12.40
2018-12-05T08:14:15.066Z,16.80
2018-12-05T08:16:44.118Z,13.17
2018-12-05T08:19:13.191Z,14.20
2018-12-05T08:22:58.590Z,20.70
2018-12-05T08:25:27.858Z,18.60
2018-12-05T08:27:56.902Z,15.83
2018-12-05T08:30:25.981Z,16.07
2018-12-05T08:32:55.115Z,11.53
2018-12-05T08:35:24.171Z,13.10
2018-12-05T08:56:28.020Z,20.07
2018-12-05T08:58:57.064Z,9.57
2018-12-05T09:01:26.101Z,14.90
2018-12-05T09:03:55.186Z,14.60
2018-12-05T09:06:24.244Z,13.50
2018-12-05T09:08:53.299Z,22.40
2018-12-05T09:11:22.385Z,45.90
2018-12-05T09:13:51.449Z,72.40
2018-12-05T09:16:20.500Z,45.13
2018-12-05T09:18:49.594Z,24.17
2018-12-05T09:21:18.647Z,9.60
2018-12-05T09:23:47.685Z,15.00
2018-12-05T09:26:18.475Z,16.50
2018-12-05T09:28:45.828Z,10.73
2018-12-05T09:31:14.871Z,17.30
2018-12-05T09:33:44.019Z,11.07
2018-12-05T09:36:13.087Z,22.50
2018-12-05T09:38:42.134Z,8.73
2018-12-05T09:41:11.286Z,12.97
2018-12-05T09:43:40.331Z,15.67
2018-12-05T09:46:09.383Z,10.53
2018-12-05T09:48:38.541Z,4.23
2018-12-05T09:51:07.580Z,10.60
2018-12-05T09:53:36.635Z,15.03
2018-12-05T09:56:05.722Z,21.93
2018-12-05T09:58:34.782Z,18.03
2018-12-05T10:01:03.828Z,15.00
2018-12-05T10:03:32.917Z,23.53
2018-12-05T10:06:01.973Z,40.37
2018-12-05T10:08:31.037Z,27.00
2018-12-05T10:11:00.154Z,111.93
2018-12-05T10:13:29.226Z,36.97
2018-12-05T10:15:58.299Z,24.03
2018-12-05T10:18:27.470Z,19.77
2018-12-05T10:20:56.606Z,26.50
2018-12-05T10:23:25.574Z,19.10
2018-12-05T10:25:54.702Z,16.07
2018-12-05T10:28:23.747Z,13.80
2018-12-05T10:30:52.808Z,15.23
2018-12-05T10:33:21.903Z,16.60
2018-12-05T10:35:50.953Z,34.57
2018-12-05T10:38:20.013Z,32.97
2018-12-05T10:40:49.128Z,18.87
2018-12-05T10:43:18.158Z,24.33
2018-12-05T10:45:47.214Z,21.10
2018-12-05T10:48:16.297Z,11.47
2018-12-05T10:50:45.384Z,16.10
2018-12-05T10:53:14.425Z,14.27
2018-12-05T10:55:43.489Z,15.33
2018-12-05T10:58:12.549Z,16.07
2018-12-05T11:00:47.240Z,9.33
2018-12-05T11:03:16.315Z,13.67
2018-12-05T11:05:50.918Z,15.23
2018-12-05T11:08:19.960Z,17.47
2018-12-05T11:10:54.537Z,13.60
2018-12-05T11:13:29.273Z,15.70
2018-12-05T11:16:02.241Z,17.03
2018-12-05T11:18:36.818Z,29.47
2018-12-05T11:21:11.355Z,23.47
2018-12-05T11:23:47.436Z,28.70
2018-12-05T11:26:15.025Z,13.33
2018-12-05T11:28:44.078Z,9.23
2018-12-05T11:31:13.126Z,9.57
2018-12-05T11:33:42.207Z,8.53
2018-12-05T11:36:11.263Z,10.40
2018-12-05T11:38:40.304Z,12.70
2018-12-05T11:41:09.504Z,7.30
2018-12-05T11:43:38.549Z,12.50
2018-12-05T11:46:07.610Z,19.87
2018-12-05T11:48:36.684Z,87.57
2018-12-05T11:51:05.729Z,53.23
2018-12-05T11:53:34.779Z,51.33
2018-12-05T11:56:03.869Z,69.47
2018-12-05T11:58:32.920Z,75.77
2018-12-05T12:01:01.971Z,26.03
2018-12-05T12:03:31.070Z,42.27
2018-12-05T12:06:00.149Z,26.63
2018-12-05T12:08:29.209Z,11.77
2018-12-05T12:10:58.308Z,10.30
2018-12-05T12:13:27.360Z,10.70
2018-12-05T12:15:56.426Z,38.90
2018-12-05T12:18:25.497Z,11.37
2018-12-05T12:20:54.554Z,31.00
2018-12-05T12:23:23.626Z,46.77
2018-12-05T12:25:52.739Z,74.27
2018-12-05T12:28:21.797Z,26.03
2018-12-05T12:30:50.879Z,36.07
2018-12-05T12:33:19.971Z,37.63
2018-12-05T12:35:49.021Z,41.43
2018-12-05T12:38:18.047Z,19.70
2018-12-05T12:40:47.128Z,27.63
2018-12-05T12:43:16.227Z,18.83
2018-12-05T12:45:45.315Z,23.83
2018-12-05T12:48:14.432Z,22.93
2018-12-05T12:50:43.494Z,14.17
2018-12-05T12:53:12.563Z,75.37
2018-12-05T12:55:41.746Z,122.87
2018-12-05T12:58:10.803Z,64.00
2018-12-05T13:00:39.868Z,44.60
2018-12-05T13:03:08.959Z,26.93
2018-12-05T13:05:38.026Z,39.20
2018-12-05T13:08:07.093Z,23.60
2018-12-05T13:10:36.197Z,31.17
2018-12-05T13:13:05.259Z,13.43
2018-12-05T13:15:34.296Z,60.27
2018-12-05T13:18:03.398Z,20.23
2018-12-05T13:20:32.435Z,17.43
2018-12-05T13:23:01.508Z,15.47
2018-12-05T13:25:30.570Z,16.77
2018-12-05T13:27:59.612Z,25.27
2018-12-05T13:30:28.704Z,29.73
2018-12-05T13:32:57.802Z,18.43
2018-12-05T13:35:30.838Z,30.20
2018-12-05T13:37:59.924Z,48.70
2018-12-05T13:40:28.993Z,32.67
2018-12-05T13:42:58.061Z,36.30
2018-12-05T13:45:27.157Z,35.17
2018-12-05T13:47:56.194Z,18.03
2018-12-05T13:50:25.247Z,49.00
2018-12-05T13:52:54.343Z,46.63
2018-12-05T13:55:23.403Z,52.67
2018-12-05T13:57:52.439Z,20.17
2018-12-05T14:00:21.531Z,115.40
2018-12-05T14:02:50.603Z,264.30
2018-12-05T14:05:19.679Z,46.97
2018-12-05T14:07:48.749Z,47.03
2018-12-05T14:10:17.814Z,111.90
2018-12-05T14:12:47.772Z,110.67
2018-12-05T14:15:16.028Z,58.90
2018-12-05T14:17:45.102Z,32.70
2018-12-05T14:20:14.144Z,42.40
2018-12-05T14:22:43.223Z,36.67
2018-12-05T14:25:12.315Z,41.57
2018-12-05T14:27:41.410Z,33.43
2018-12-05T14:30:10.492Z,33.60
2018-12-05T14:32:39.534Z,30.10
2018-12-05T14:35:13.004Z,46.30
2018-12-05T14:37:42.043Z,30.37
2018-12-05T14:40:11.123Z,33.13
2018-12-05T14:42:40.197Z,54.70
2018-12-05T14:45:15.937Z,84.63
2018-12-05T14:47:45.010Z,120.00
2018-12-05T14:50:14.076Z,155.70
2018-12-05T14:52:43.149Z,130.27
2018-12-05T14:55:12.257Z,114.37
2018-12-05T14:57:41.307Z,101.67
2018-12-05T15:00:10.383Z,98.73
2018-12-05T15:02:39.473Z,109.93
2018-12-05T15:05:08.532Z,103.73
2018-12-05T15:07:37.624Z,124.40
2018-12-05T15:10:06.708Z,118.10
2018-12-05T15:12:35.790Z,108.07
2018-12-05T15:15:04.864Z,119.10
2018-12-05T15:17:33.983Z,122.90
2018-12-05T15:20:03.046Z,144.20
2018-12-05T15:22:32.111Z,132.53
2018-12-05T15:25:01.296Z,158.23
2018-12-05T15:27:30.268Z,148.27
2018-12-05T15:29:59.372Z,127.73
2018-12-05T15:32:28.463Z,144.10
2018-12-05T15:34:57.545Z,139.40
2018-12-05T15:37:26.615Z,188.83
2018-12-05T15:39:55.721Z,171.83
2018-12-05T15:42:24.792Z,179.60
2018-12-05T15:44:55.830Z,181.67
2018-12-05T15:47:24.944Z,162.87
2018-12-05T15:49:54.270Z,134.67
2018-12-05T15:52:23.349Z,144.70
2018-12-05T15:54:52.440Z,152.23
2018-12-05T15:57:21.514Z,165.03
2018-12-05T15:59:50.594Z,170.97
2018-12-05T16:02:20.014Z,162.50
2018-12-05T16:04:49.107Z,169.37
2018-12-05T16:07:18.172Z,200.67
2018-12-05T16:09:47.276Z,215.33
2018-12-05T16:12:16.351Z,221.90
2018-12-05T16:14:45.435Z,260.97
2018-12-05T16:17:14.543Z,235.50
2018-12-05T16:19:43.603Z,291.67
2018-12-05T16:22:12.677Z,317.20
2018-12-05T16:24:41.809Z,291.00
2018-12-05T16:27:10.871Z,272.30
2018-12-05T16:29:39.953Z,239.57
2018-12-05T16:32:09.062Z,229.40
2018-12-05T16:34:38.133Z,239.00
2018-12-05T16:37:07.216Z,245.63
2018-12-05T16:39:36.313Z,222.77
2018-12-05T16:42:05.392Z,212.17
2018-12-05T16:44:34.452Z,157.90
2018-12-05T16:47:03.719Z,174.00
2018-12-05T16:49:32.793Z,160.17
2018-12-05T16:52:01.867Z,171.10
2018-12-05T16:54:30.959Z,151.37
2018-12-05T16:57:00.024Z,177.70
2018-12-05T16:59:29.088Z,206.83
2018-12-05T17:01:58.190Z,223.10
2018-12-05T17:04:27.254Z,217.57
2018-12-05T17:06:56.316Z,234.23
2018-12-05T17:09:26.246Z,218.80
2018-12-05T17:11:54.575Z,205.60
2018-12-05T17:14:23.577Z,182.97
2018-12-05T17:16:52.704Z,198.17
2018-12-05T17:19:21.777Z,208.83
2018-12-05T17:21:50.855Z,195.87
2018-12-05T17:24:19.949Z,467.07
2018-12-05T17:26:49.041Z,475.53
2018-12-05T17:29:18.121Z,375.03
2018-12-05T17:31:47.415Z,290.23
2018-12-05T17:34:16.498Z,263.57
2018-12-05T17:36:45.589Z,197.63
2018-12-05T17:39:14.682Z,195.43
2018-12-05T17:41:43.748Z,180.10
2018-12-05T17:44:12.838Z,168.17
2018-12-05T17:46:41.922Z,162.57
2018-12-05T17:49:10.979Z,158.57
2018-12-05T17:51:40.042Z,155.37
2018-12-05T17:54:14.743Z,143.60
2018-12-05T17:56:38.228Z,166.07
2018-12-05T17:59:07.300Z,222.83
2018-12-05T18:01:36.411Z,177.40
2018-12-05T18:04:05.529Z,298.57
2018-12-05T18:06:34.633Z,275.40
2018-12-05T18:09:03.738Z,289.43
2018-12-05T18:11:32.900Z,288.50
2018-12-05T18:14:02.901Z,291.63
2018-12-05T18:16:31.795Z,382.67
2018-12-05T18:19:00.862Z,318.77
2018-12-05T18:21:29.941Z,307.97
2018-12-05T18:23:59.084Z,320.10
2018-12-05T18:26:28.136Z,294.83
2018-12-05T18:28:57.199Z,361.37
2018-12-05T18:31:26.287Z,395.63
2018-12-05T18:33:55.381Z,462.53
2018-12-05T18:36:24.459Z,450.63
2018-12-05T18:38:53.578Z,445.40
2018-12-05T18:41:22.663Z,439.13
2018-12-05T18:43:51.719Z,387.10
2018-12-05T18:46:20.834Z,373.27
2018-12-05T18:48:49.913Z,353.13
2018-12-05T18:51:19.016Z,304.33
2018-12-05T18:53:48.141Z,275.83
2018-12-05T18:56:17.233Z,253.57
2018-12-05T18:58:46.317Z,230.07
2018-12-05T19:01:15.459Z,233.40
2018-12-05T19:03:44.534Z,233.97
2018-12-05T19:06:13.752Z,268.17
2018-12-05T19:08:42.844Z,285.43
2018-12-05T19:11:11.922Z,299.50
2018-12-05T19:13:46.515Z,302.53
2018-12-05T19:16:15.576Z,287.77
2018-12-05T19:18:44.778Z,309.10
2018-12-05T19:21:13.906Z,356.47
2018-12-05T19:23:42.999Z,350.67
2018-12-05T19:26:12.068Z,339.73
2018-12-05T19:28:41.168Z,321.57
2018-12-05T19:31:10.264Z,314.60
2018-12-05T19:33:39.357Z,291.33
2018-12-05T19:36:08.471Z,302.40
2018-12-05T19:38:37.581Z,261.47
2018-12-05T19:41:06.645Z,286.07
2018-12-05T19:43:36.081Z,282.97
2018-12-05T19:46:05.177Z,295.33
2018-12-05T19:48:34.245Z,302.63
2018-12-05T19:51:03.338Z,396.37
2018-12-05T19:53:32.435Z,464.40
2018-12-05T19:56:01.542Z,608.03
2018-12-05T19:58:30.661Z,488.43
2018-12-05T20:00:59.758Z,472.00
2018-12-05T20:03:28.836Z,402.13
2018-12-05T20:05:57.965Z,338.70
2018-12-05T20:08:27.045Z,334.43
2018-12-05T20:10:56.139Z,279.93
2018-12-05T20:13:25.237Z,268.87
2018-12-05T20:15:54.323Z,222.00
2018-12-05T20:18:23.433Z,187.47
2018-12-05T20:20:52.532Z,203.47
2018-12-05T20:23:21.608Z,192.97
2018-12-05T20:25:50.674Z,196.50
2018-12-05T20:28:19.918Z,163.30
2018-12-05T20:30:49.017Z,224.77
2018-12-05T20:33:18.096Z,178.00
2018-12-05T20:35:47.285Z,189.20
2018-12-05T20:38:16.353Z,186.00
2018-12-05T20:40:45.422Z,216.80
2018-12-05T20:43:14.533Z,199.47
2018-12-05T20:45:43.627Z,198.13
2018-12-05T20:48:12.754Z,178.27
2018-12-05T20:50:41.981Z,183.20
2018-12-05T20:53:11.106Z,178.27
2018-12-05T20:55:40.175Z,159.57
2018-12-05T20:58:09.262Z,163.67
2018-12-05T21:00:38.324Z,159.93
2018-12-05T21:03:07.397Z,136.77
2018-12-05T21:05:36.523Z,133.07
2018-12-05T21:08:05.559Z,123.93
2018-12-05T21:10:34.627Z,123.60
2018-12-05T21:13:03.738Z,118.97
2018-12-05T21:15:32.857Z,121.87
2018-12-05T21:18:01.943Z,121.97
2018-12-05T21:20:31.048Z,102.07
2018-12-05T21:23:00.112Z,100.63
2018-12-05T21:25:29.164Z,105.03
2018-12-05T21:27:58.250Z,106.53
2018-12-05T21:30:27.313Z,93.43
2018-12-05T21:32:56.357Z,99.17
2018-12-05T21:35:35.291Z,95.93
2018-12-05T21:38:04.364Z,100.03
2018-12-05T21:40:33.431Z,91.87
2018-12-05T21:43:02.516Z,100.93
2018-12-05T21:45:31.568Z,106.40
2018-12-05T21:48:00.636Z,101.67
2018-12-05T21:50:29.729Z,114.83
2018-12-05T21:52:58.797Z,120.03
2018-12-05T21:55:27.855Z,112.00
2018-12-05T21:57:57.661Z,99.97
2018-12-05T22:00:26.045Z,94.83
2018-12-05T22:02:55.116Z,94.30
2018-12-05T22:05:24.197Z,93.03
2018-12-05T22:07:53.264Z,82.37
2018-12-05T22:10:22.316Z,77.87
2018-12-05T22:12:51.398Z,68.13
2018-12-05T22:15:20.459Z,75.10
2018-12-05T22:17:49.518Z,79.57
2018-12-05T22:20:18.656Z,88.40
2018-12-05T22:22:47.706Z,84.60
2018-12-05T22:25:21.030Z,78.77
2018-12-05T22:27:50.088Z,73.73
2018-12-05T22:30:19.133Z,78.23
2018-12-05T22:32:48.215Z,67.70
2018-12-05T22:35:17.274Z,56.03
2018-12-05T22:37:46.321Z,50.63
2018-12-05T22:40:15.523Z,59.57
2018-12-05T22:42:44.584Z,58.43
2018-12-05T22:45:19.490Z,59.40
2018-12-05T22:47:48.553Z,68.30
2018-12-05T22:50:17.613Z,72.43
2018-12-05T22:52:46.697Z,78.10
2018-12-05T22:55:15.762Z,70.43
2018-12-05T22:57:44.801Z,68.50
2018-12-05T23:00:13.928Z,57.93
2018-12-05T23:02:43.001Z,62.40
2018-12-05T23:05:15.710Z,56.17
2018-12-05T23:07:44.717Z,46.43
2018-12-05T23:10:13.778Z,37.43
2018-12-05T23:12:42.860Z,32.17
2018-12-05T23:15:11.906Z,50.77
2018-12-05T23:17:40.962Z,38.33
2018-12-05T23:20:10.081Z,35.90
2018-12-05T23:22:39.124Z,33.23
2018-12-05T23:25:13.539Z,50.67
2018-12-05T23:27:42.601Z,62.93
2018-12-05T23:30:11.666Z,52.70
2018-12-05T23:32:40.825Z,41.73
2018-12-05T23:35:09.886Z,33.00
2018-12-05T23:37:38.964Z,36.73
2018-12-05T23:40:08.102Z,31.37
2018-12-05T23:42:37.143Z,26.10
2018-12-05T23:45:11.318Z,27.33
2018-12-05T23:47:40.370Z,34.37
2018-12-05T23:50:09.443Z,29.23
2018-12-05T23:52:38.529Z,32.03
2018-12-05T23:55:07.581Z,34.30
2018-12-05T23:57:36.635Z,33.77
